Desoto — WDE3761 — position and weather

sailwx.info

Track history (hours):
 
Tides and Currents Weather Stations Pressure Air Temp Water Temp Dewpoint Dewpoint Depression Visibility Wind Speed Wind Dir Waves Ship Positions

Desoto

Owner: Tampa Pilots LLC, tampa, FL. More information available from US FCC via Universal Licensing System and Coast Guard Vessel Documentation Center.

Last reported at 2014-Oct-20 17:32 UTC. Time now 2014-Oct-20 18:01 UTC.
Position N 27°35' W 082°46'.

Length 18 m.

Type: Pilot. MMSI: 367343870.

Date/timePositionNaut miles runAvg speedWind from/ knotsBaromVisibWave heightAir tempDewpointWater temp
2014-Oct-20 17:32N 27°35' W 082°46'0 0.0
2014-Oct-20 16:32N 27°35' W 082°46'0 0.0
2014-Oct-20 15:17N 27°35' W 082°46'1 1.6
2014-Oct-20 14:33N 27°36' W 082°44'1 1.2
2014-Oct-20 13:33N 27°35' W 082°46'0 0.0
2014-Oct-20 12:33N 27°35' W 082°46'0 0.0
2014-Oct-20 11:33N 27°35' W 082°46'2 2.1
2014-Oct-20 10:33N 27°37' W 082°44'2 2.0
2014-Oct-20 09:33N 27°35' W 082°46'0 0.0
2014-Oct-20 08:33N 27°35' W 082°46'0 0.0
2014-Oct-20 07:34N 27°35' W 082°46'0 0.0
2014-Oct-20 06:34N 27°35' W 082°46'0 0.0
2014-Oct-20 05:33N 27°35' W 082°46'0 0.0
2014-Oct-20 04:33N 27°35' W 082°46'0 0.0
2014-Oct-20 03:34N 27°35' W 082°46'0 0.0
2014-Oct-20 02:34N 27°35' W 082°46'0 0.0
2014-Oct-20 01:33N 27°35' W 082°46'0 0.0
2014-Oct-20 00:33N 27°35' W 082°46'0 0.0
2014-Oct-19 23:33N 27°35' W 082°46'0 0.0
2014-Oct-19 22:33N 27°35' W 082°46'0 0.0
2014-Oct-19 21:34N 27°35' W 082°46'0 0.0
2014-Oct-19 20:33N 27°35' W 082°46'0 0.0
2014-Oct-19 19:33N 27°35' W 082°46'0 0.0
2014-Oct-19 18:33N 27°35' W 082°46'0 0.0
2014-Oct-19 17:32N 27°35' W 082°46'0 0.0
2014-Oct-19 16:33N 27°35' W 082°46'0 0.0
2014-Oct-19 15:33N 27°35' W 082°46'0 0.0
2014-Oct-19 14:33N 27°35' W 082°46'0 0.0
2014-Oct-19 13:33N 27°35' W 082°46'0 0.0
2014-Oct-19 12:33N 27°35' W 082°46'0 0.0
2014-Oct-19 11:33N 27°35' W 082°46'3 2.5
2014-Oct-19 10:33N 27°37' W 082°44'2 2.4
2014-Oct-19 09:32N 27°35' W 082°46'0 0.0
2014-Oct-19 08:32N 27°35' W 082°46'0 0.0
2014-Oct-19 07:33N 27°35' W 082°46'0 0.0
2014-Oct-19 06:33N 27°35' W 082°46'0 0.0
2014-Oct-19 05:33N 27°35' W 082°46'2 2.4
2014-Oct-19 04:33N 27°37' W 082°44'8 8.0
2014-Oct-19 03:33N 27°36' W 082°53'6 6.2
2014-Oct-19 02:33N 27°35' W 082°46'0 0.0
2014-Oct-19 01:33N 27°35' W 082°46'0 0.0
2014-Oct-19 00:33N 27°35' W 082°46'2 1.8
2014-Oct-18 23:33N 27°37' W 082°47'2 1.7
2014-Oct-18 22:32N 27°36' W 082°45'2 2.3
2014-Oct-18 21:32N 27°37' W 082°47'2 2.3
2014-Oct-18 20:32N 27°35' W 082°46'0 0.0
2014-Oct-18 19:32N 27°35' W 082°46'0 0.0
2014-Oct-18 18:32N 27°35' W 082°46'0 0.0
2014-Oct-18 17:32N 27°35' W 082°46'0 0.0
2014-Oct-18 16:32N 27°35' W 082°46'0 0.0
2014-Oct-18 15:32N 27°35' W 082°46'1 1.0
2014-Oct-18 14:08N 27°36' W 082°44'1 1.9
2014-Oct-18 13:23N 27°35' W 082°46'0 0.0
2014-Oct-18 12:32N 27°35' W 082°46'0 0.0
2014-Oct-18 11:31N 27°35' W 082°46'0 0.0
2014-Oct-18 10:31N 27°35' W 082°46'0 0.0
2014-Oct-18 09:31N 27°35' W 082°46'0 0.0
2014-Oct-18 08:31N 27°35' W 082°46'2 1.7
2014-Oct-18 07:33N 27°37' W 082°47'1 1.2
2014-Oct-18 06:34N 27°37' W 082°48'3 2.5
2014-Oct-18 05:31N 27°35' W 082°46'0 0.0
2014-Oct-18 04:28N 27°35' W 082°46'0 0.0
2014-Oct-18 03:28N 27°35' W 082°46'0 0.0
2014-Oct-18 02:31N 27°35' W 082°46'0 0.0
2014-Oct-18 01:13N 27°35' W 082°46'0 0.0
2014-Oct-18 00:31N 27°35' W 082°46'0 0.0
2014-Oct-17 23:25N 27°35' W 082°46'0 0.0
2014-Oct-17 22:31N 27°35' W 082°46'0 0.0
2014-Oct-17 21:31N 27°35' W 082°46'0 0.0
2014-Oct-17 20:31N 27°35' W 082°46'0 0.0
2014-Oct-17 19:31N 27°35' W 082°46'0 0.0
2014-Oct-17 18:31N 27°35' W 082°46'0 0.0
2014-Oct-17 17:31N 27°35' W 082°46'0 0.0
2014-Oct-17 16:31N 27°35' W 082°46'0 0.0
2014-Oct-17 14:31N 27°35' W 082°46'0 0.0
2014-Oct-17 13:31N 27°35' W 082°46'0 0.0
2014-Oct-17 12:31N 27°35' W 082°46'0 0.0
2014-Oct-17 11:31N 27°35' W 082°46'0 0.0
2014-Oct-17 10:31N 27°35' W 082°46'0 0.0
2014-Oct-17 09:31N 27°35' W 082°46'0 0.0
2014-Oct-17 08:31N 27°35' W 082°46'0 0.0
2014-Oct-17 07:31N 27°35' W 082°46'0 0.0
2014-Oct-17 06:31N 27°35' W 082°46'0 0.0
2014-Oct-17 05:31N 27°35' W 082°46'0 0.0
2014-Oct-17 04:31N 27°35' W 082°46'0 0.0
2014-Oct-17 03:31N 27°35' W 082°46'0 0.0
2014-Oct-17 02:31N 27°35' W 082°46'0 0.0
2014-Oct-17 01:28N 27°35' W 082°46'0 0.0
2014-Oct-17 00:31N 27°35' W 082°46'0 0.0
2014-Oct-16 23:33N 27°35' W 082°46'0 0.0
2014-Oct-16 22:33N 27°35' W 082°46'0 0.0
2014-Oct-16 21:33N 27°35' W 082°46'0 0.0
2014-Oct-16 20:33N 27°35' W 082°46'0 0.0
2014-Oct-16 19:33N 27°35' W 082°46'0 0.0
2014-Oct-16 18:33N 27°35' W 082°46'0 0.0
2014-Oct-16 17:33N 27°35' W 082°46'0 0.0
2014-Oct-16 16:33N 27°35' W 082°46'0 0.0
2014-Oct-16 15:33N 27°35' W 082°46'0 0.0
2014-Oct-16 14:33N 27°35' W 082°46'0 0.0
2014-Oct-16 13:33N 27°35' W 082°46'0 0.0
2014-Oct-16 12:30N 27°35' W 082°46'0 0.0
2014-Oct-16 11:33N 27°35' W 082°46'0 0.0
2014-Oct-16 10:33N 27°35' W 082°46'0 0.0
2014-Oct-16 09:33N 27°35' W 082°46'0 0.0
2014-Oct-16 08:33N 27°35' W 082°46'0 0.0
2014-Oct-16 07:33N 27°35' W 082°46'0 0.0
2014-Oct-16 06:33N 27°35' W 082°46'0 0.0
2014-Oct-16 05:33N 27°35' W 082°46'0 0.0
2014-Oct-16 04:33N 27°35' W 082°46'0 0.0
2014-Oct-16 03:33N 27°35' W 082°46'0 0.0
2014-Oct-16 02:33N 27°35' W 082°46'0 0.0
2014-Oct-16 01:24N 27°35' W 082°46'0 0.0
2014-Oct-16 00:15N 27°35' W 082°46'0 0.0
2014-Oct-15 23:33N 27°35' W 082°46'0 0.0
2014-Oct-15 22:33N 27°35' W 082°46'0 0.0
2014-Oct-15 21:33N 27°35' W 082°46'0 0.0
2014-Oct-15 20:33N 27°35' W 082°46'0 0.0
2014-Oct-15 19:33N 27°35' W 082°46'0 0.0
2014-Oct-15 18:25N 27°35' W 082°46'0 0.0
2014-Oct-15 17:31N 27°35' W 082°46'0 0.0
2014-Oct-15 16:33N 27°35' W 082°46'0 0.0
2014-Oct-15 15:33N 27°35' W 082°46'1 0.7
2014-Oct-15 14:33N 27°36' W 082°45'1 0.7
2014-Oct-15 13:33N 27°35' W 082°46'0 0.0
2014-Oct-15 12:33N 27°35' W 082°46'0 0.0
2014-Oct-15 11:33N 27°35' W 082°46'3 2.5
2014-Oct-15 10:33N 27°37' W 082°48'3 3.0
2014-Oct-15 09:34N 27°36' W 082°45'6 5.6
2014-Oct-15 08:33N 27°36' W 082°51'5 4.8
2014-Oct-15 07:32N 27°35' W 082°46'0 0.0
2014-Oct-15 06:32N 27°35' W 082°46'0 0.0
2014-Oct-15 05:32N 27°35' W 082°46'0 0.0
2014-Oct-15 04:32N 27°35' W 082°46'0 0.0
2014-Oct-15 03:32N 27°35' W 082°46'0 0.0
2014-Oct-15 02:32N 27°35' W 082°46'0 0.0
2014-Oct-15 00:32N 27°35' W 082°46'0 0.0
2014-Oct-14 23:05N 27°35' W 082°46'0 0.0
2014-Oct-14 22:32N 27°35' W 082°46'0 0.0
2014-Oct-14 21:32N 27°35' W 082°46'0 0.0
2014-Oct-14 20:32N 27°35' W 082°46'0 0.0
2014-Oct-14 19:32N 27°35' W 082°46'0 0.0
2014-Oct-14 18:32N 27°35' W 082°46'0 0.0
2014-Oct-14 17:32N 27°35' W 082°46'7 7.3
2014-Oct-14 16:33N 27°36' W 082°54'8 7.8
2014-Oct-14 15:34N 27°36' W 082°45'1 0.7
2014-Oct-14 13:32N 27°35' W 082°46'0 0.0
2014-Oct-14 12:32N 27°35' W 082°46'0 0.0
2014-Oct-14 11:26N 27°35' W 082°46'2 2.9
2014-Oct-14 10:33N 27°37' W 082°44'2 2.5
2014-Oct-14 09:33N 27°35' W 082°46'0 0.0
2014-Oct-14 08:33N 27°35' W 082°46'4 4.4
2014-Oct-14 07:33N 27°36' W 082°50'2 1.7
2014-Oct-14 06:33N 27°36' W 082°52'8 7.7
2014-Oct-14 05:33N 27°37' W 082°44'2 2.5
2014-Oct-14 04:33N 27°35' W 082°46'0 0.0
2014-Oct-14 03:33N 27°35' W 082°46'1 1.0
2014-Oct-14 02:33N 27°36' W 082°45'5 5.5
2014-Oct-14 01:33N 27°36' W 082°51'5 4.6
2014-Oct-14 00:33N 27°35' W 082°46'1 1.4
2014-Oct-13 23:33N 27°36' W 082°45'1 1.3
2014-Oct-13 22:33N 27°37' W 082°44'5 5.3
2014-Oct-13 21:32N 27°36' W 082°50'4 3.5
2014-Oct-13 20:28N 27°35' W 082°46'1 0.7
2014-Oct-13 19:31N 27°35' W 082°45'1 0.7
2014-Oct-13 18:32N 27°35' W 082°46'0 0.0
2014-Oct-13 17:33N 27°35' W 082°46'0 0.0
2014-Oct-13 16:33N 27°35' W 082°46'0 0.0
2014-Oct-13 15:32N 27°35' W 082°46'0 0.0
2014-Oct-13 14:08N 27°35' W 082°46'0 0.0
2014-Oct-13 13:32N 27°35' W 082°46'0 0.0
2014-Oct-13 12:32N 27°35' W 082°46'0 0.0
2014-Oct-13 11:32N 27°35' W 082°46'0 0.0
2014-Oct-13 10:32N 27°35' W 082°46'0 0.0
2014-Oct-13 09:32N 27°35' W 082°46'0 0.0
2014-Oct-13 08:32N 27°35' W 082°46'0 0.0
2014-Oct-13 07:32N 27°35' W 082°46'0 0.0
2014-Oct-13 06:32N 27°35' W 082°46'0 0.0
2014-Oct-13 05:32N 27°35' W 082°46'0 0.0
2014-Oct-13 04:32N 27°35' W 082°46'0 0.0
2014-Oct-13 03:32N 27°35' W 082°46'0 0.0
2014-Oct-13 02:32N 27°35' W 082°46'0 0.0
2014-Oct-13 01:32N 27°35' W 082°46'0 0.0
2014-Oct-13 00:32N 27°35' W 082°46'0 0.0
2014-Oct-12 23:32N 27°35' W 082°46'2 2.6
2014-Oct-12 22:33N 27°37' W 082°44'2 2.4
2014-Oct-12 21:30N 27°35' W 082°46'2 1.7
2014-Oct-12 20:33N 27°37' W 082°46'2 2.3
2014-Oct-12 19:33N 27°36' W 082°49'3 3.3
2014-Oct-12 18:34N 27°36' W 082°45'1 1.2
2014-Oct-12 17:30N 27°35' W 082°46'6 6.5
2014-Oct-12 16:34N 27°36' W 082°52'4 3.9
2014-Oct-12 15:33N 27°37' W 082°48'2 2.4
2014-Oct-12 14:31N 27°35' W 082°46'0 0.0
2014-Oct-12 13:31N 27°35' W 082°46'0 0.0
2014-Oct-12 12:33N 27°35' W 082°46'3 3.0
2014-Oct-12 11:33N 27°37' W 082°49'4 4.5
2014-Oct-12 10:34N 27°37' W 082°44'2 2.5
2014-Oct-12 09:33N 27°35' W 082°46'0 0.0
2014-Oct-12 08:33N 27°35' W 082°46'0 0.0
2014-Oct-12 07:33N 27°35' W 082°46'7 7.3
2014-Oct-12 06:33N 27°36' W 082°54'9 8.6
2014-Oct-12 05:33N 27°37' W 082°44'2 1.8
2014-Oct-12 04:31N 27°35' W 082°46'0 0.0
2014-Oct-12 03:31N 27°35' W 082°46'0 0.0
2014-Oct-12 02:31N 27°35' W 082°46'0 0.0
2014-Oct-12 01:31N 27°35' W 082°46'0 0.0
2014-Oct-12 00:31N 27°35' W 082°46'0 0.0
2014-Oct-11 23:31N 27°35' W 082°46'2 2.4
2014-Oct-11 22:33N 27°37' W 082°44'2 2.3
2014-Oct-11 21:33N 27°35' W 082°46'0 0.0
2014-Oct-11 20:27N 27°35' W 082°46'0 0.0
2014-Oct-11 19:33N 27°35' W 082°46'0 0.0
2014-Oct-11 18:33N 27°35' W 082°46'3 2.8
2014-Oct-11 17:33N 27°37' W 082°48'3 2.7
2014-Oct-11 16:33N 27°35' W 082°46'0 0.0
2014-Oct-11 15:33N 27°35' W 082°46'1 0.5
2014-Oct-11 14:04N 27°36' W 082°45'1 2.7
2014-Oct-11 13:33N 27°37' W 082°46'1 1.4
2014-Oct-11 12:30N 27°35' W 082°46'0 0.0
2014-Oct-11 11:33N 27°35' W 082°46'0 0.0
2014-Oct-11 10:33N 27°35' W 082°46'0 0.0
2014-Oct-11 09:33N 27°35' W 082°46'0 0.0
2014-Oct-11 08:30N 27°35' W 082°46'0 0.0
2014-Oct-11 07:33N 27°35' W 082°46'6 5.9
2014-Oct-11 06:33N 27°36' W 082°52'1 1.1
2014-Oct-11 05:20N 27°36' W 082°51'5 5.7
2014-Oct-11 04:32N 27°35' W 082°46'0 0.0
2014-Oct-11 03:32N 27°35' W 082°46'0 0.0
2014-Oct-11 02:29N 27°35' W 082°46'0 0.0
2014-Oct-11 01:29N 27°35' W 082°46'0 0.0
2014-Oct-11 00:32N 27°35' W 082°46'0 0.0
2014-Oct-10 23:32N 27°35' W 082°46'0 0.0
2014-Oct-10 22:32N 27°35' W 082°46'0 0.0
2014-Oct-10 21:32N 27°35' W 082°46'0 0.0
2014-Oct-10 20:29N 27°35' W 082°46'0 0.0
2014-Oct-10 19:32N 27°35' W 082°46'0 0.0
2014-Oct-10 18:32N 27°35' W 082°46'  
Track history (hours):
 
Tides and Currents Weather Stations Pressure Air Temp Water Temp Dewpoint Dewpoint Depression Visibility Wind Speed Wind Dir Waves Ship Positions

Desoto

Owner: Tampa Pilots LLC, tampa, FL. More information available from US FCC via Universal Licensing System and Coast Guard Vessel Documentation Center.

Last reported at 2014-Oct-20 17:32 UTC. Time now 2014-Oct-20 18:01 UTC.
Position N 27°35' W 082°46'.

Length 18 m.

Type: Pilot. MMSI: 367343870.

Date/timePositionNaut miles runAvg speedWind from/ knotsBaromVisibWave heightAir tempDewpointWater temp
2014-Oct-20 17:32N 27°35' W 082°46'0 0.0
2014-Oct-20 16:32N 27°35' W 082°46'0 0.0
2014-Oct-20 15:17N 27°35' W 082°46'1 1.6
2014-Oct-20 14:33N 27°36' W 082°44'1 1.2
2014-Oct-20 13:33N 27°35' W 082°46'0 0.0
2014-Oct-20 12:33N 27°35' W 082°46'0 0.0
2014-Oct-20 11:33N 27°35' W 082°46'2 2.1
2014-Oct-20 10:33N 27°37' W 082°44'2 2.0
2014-Oct-20 09:33N 27°35' W 082°46'0 0.0
2014-Oct-20 08:33N 27°35' W 082°46'0 0.0
2014-Oct-20 07:34N 27°35' W 082°46'0 0.0
2014-Oct-20 06:34N 27°35' W 082°46'0 0.0
2014-Oct-20 05:33N 27°35' W 082°46'0 0.0
2014-Oct-20 04:33N 27°35' W 082°46'0 0.0
2014-Oct-20 03:34N 27°35' W 082°46'0 0.0
2014-Oct-20 02:34N 27°35' W 082°46'0 0.0
2014-Oct-20 01:33N 27°35' W 082°46'0 0.0
2014-Oct-20 00:33N 27°35' W 082°46'0 0.0
2014-Oct-19 23:33N 27°35' W 082°46'0 0.0
2014-Oct-19 22:33N 27°35' W 082°46'0 0.0
2014-Oct-19 21:34N 27°35' W 082°46'0 0.0
2014-Oct-19 20:33N 27°35' W 082°46'0 0.0
2014-Oct-19 19:33N 27°35' W 082°46'0 0.0
2014-Oct-19 18:33N 27°35' W 082°46'0 0.0
2014-Oct-19 17:32N 27°35' W 082°46'0 0.0
2014-Oct-19 16:33N 27°35' W 082°46'0 0.0
2014-Oct-19 15:33N 27°35' W 082°46'0 0.0
2014-Oct-19 14:33N 27°35' W 082°46'0 0.0
2014-Oct-19 13:33N 27°35' W 082°46'0 0.0
2014-Oct-19 12:33N 27°35' W 082°46'0 0.0
2014-Oct-19 11:33N 27°35' W 082°46'3 2.5
2014-Oct-19 10:33N 27°37' W 082°44'2 2.4
2014-Oct-19 09:32N 27°35' W 082°46'0 0.0
2014-Oct-19 08:32N 27°35' W 082°46'0 0.0
2014-Oct-19 07:33N 27°35' W 082°46'0 0.0
2014-Oct-19 06:33N 27°35' W 082°46'0 0.0
2014-Oct-19 05:33N 27°35' W 082°46'2 2.4
2014-Oct-19 04:33N 27°37' W 082°44'8 8.0
2014-Oct-19 03:33N 27°36' W 082°53'6 6.2
2014-Oct-19 02:33N 27°35' W 082°46'0 0.0
2014-Oct-19 01:33N 27°35' W 082°46'0 0.0
2014-Oct-19 00:33N 27°35' W 082°46'2 1.8
2014-Oct-18 23:33N 27°37' W 082°47'2 1.7
2014-Oct-18 22:32N 27°36' W 082°45'2 2.3
2014-Oct-18 21:32N 27°37' W 082°47'2 2.3
2014-Oct-18 20:32N 27°35' W 082°46'0 0.0
2014-Oct-18 19:32N 27°35' W 082°46'0 0.0
2014-Oct-18 18:32N 27°35' W 082°46'0 0.0
2014-Oct-18 17:32N 27°35' W 082°46'0 0.0
2014-Oct-18 16:32N 27°35' W 082°46'0 0.0
2014-Oct-18 15:32N 27°35' W 082°46'1 1.0
2014-Oct-18 14:08N 27°36' W 082°44'1 1.9
2014-Oct-18 13:23N 27°35' W 082°46'0 0.0
2014-Oct-18 12:32N 27°35' W 082°46'0 0.0
2014-Oct-18 11:31N 27°35' W 082°46'0 0.0
2014-Oct-18 10:31N 27°35' W 082°46'0 0.0
2014-Oct-18 09:31N 27°35' W 082°46'0 0.0
2014-Oct-18 08:31N 27°35' W 082°46'2 1.7
2014-Oct-18 07:33N 27°37' W 082°47'1 1.2
2014-Oct-18 06:34N 27°37' W 082°48'3 2.5
2014-Oct-18 05:31N 27°35' W 082°46'0 0.0
2014-Oct-18 04:28N 27°35' W 082°46'0 0.0
2014-Oct-18 03:28N 27°35' W 082°46'0 0.0
2014-Oct-18 02:31N 27°35' W 082°46'0 0.0
2014-Oct-18 01:13N 27°35' W 082°46'0 0.0
2014-Oct-18 00:31N 27°35' W 082°46'0 0.0
2014-Oct-17 23:25N 27°35' W 082°46'0 0.0
2014-Oct-17 22:31N 27°35' W 082°46'0 0.0
2014-Oct-17 21:31N 27°35' W 082°46'0 0.0
2014-Oct-17 20:31N 27°35' W 082°46'0 0.0
2014-Oct-17 19:31N 27°35' W 082°46'0 0.0
2014-Oct-17 18:31N 27°35' W 082°46'0 0.0
2014-Oct-17 17:31N 27°35' W 082°46'0 0.0
2014-Oct-17 16:31N 27°35' W 082°46'0 0.0
2014-Oct-17 14:31N 27°35' W 082°46'0 0.0
2014-Oct-17 13:31N 27°35' W 082°46'0 0.0
2014-Oct-17 12:31N 27°35' W 082°46'0 0.0
2014-Oct-17 11:31N 27°35' W 082°46'0 0.0
2014-Oct-17 10:31N 27°35' W 082°46'0 0.0
2014-Oct-17 09:31N 27°35' W 082°46'0 0.0
2014-Oct-17 08:31N 27°35' W 082°46'0 0.0
2014-Oct-17 07:31N 27°35' W 082°46'0 0.0
2014-Oct-17 06:31N 27°35' W 082°46'0 0.0
2014-Oct-17 05:31N 27°35' W 082°46'0 0.0
2014-Oct-17 04:31N 27°35' W 082°46'0 0.0
2014-Oct-17 03:31N 27°35' W 082°46'0 0.0
2014-Oct-17 02:31N 27°35' W 082°46'0 0.0
2014-Oct-17 01:28N 27°35' W 082°46'0 0.0
2014-Oct-17 00:31N 27°35' W 082°46'0 0.0
2014-Oct-16 23:33N 27°35' W 082°46'0 0.0
2014-Oct-16 22:33N 27°35' W 082°46'0 0.0
2014-Oct-16 21:33N 27°35' W 082°46'0 0.0
2014-Oct-16 20:33N 27°35' W 082°46'0 0.0
2014-Oct-16 19:33N 27°35' W 082°46'0 0.0
2014-Oct-16 18:33N 27°35' W 082°46'0 0.0
2014-Oct-16 17:33N 27°35' W 082°46'0 0.0
2014-Oct-16 16:33N 27°35' W 082°46'0 0.0
2014-Oct-16 15:33N 27°35' W 082°46'0 0.0
2014-Oct-16 14:33N 27°35' W 082°46'0 0.0
2014-Oct-16 13:33N 27°35' W 082°46'0 0.0
2014-Oct-16 12:30N 27°35' W 082°46'0 0.0
2014-Oct-16 11:33N 27°35' W 082°46'0 0.0
2014-Oct-16 10:33N 27°35' W 082°46'0 0.0
2014-Oct-16 09:33N 27°35' W 082°46'0 0.0
2014-Oct-16 08:33N 27°35' W 082°46'0 0.0
2014-Oct-16 07:33N 27°35' W 082°46'0 0.0
2014-Oct-16 06:33N 27°35' W 082°46'0 0.0
2014-Oct-16 05:33N 27°35' W 082°46'0 0.0
2014-Oct-16 04:33N 27°35' W 082°46'0 0.0
2014-Oct-16 03:33N 27°35' W 082°46'0 0.0
2014-Oct-16 02:33N 27°35' W 082°46'0 0.0
2014-Oct-16 01:24N 27°35' W 082°46'0 0.0
2014-Oct-16 00:15N 27°35' W 082°46'0 0.0
2014-Oct-15 23:33N 27°35' W 082°46'0 0.0
2014-Oct-15 22:33N 27°35' W 082°46'0 0.0
2014-Oct-15 21:33N 27°35' W 082°46'0 0.0
2014-Oct-15 20:33N 27°35' W 082°46'0 0.0
2014-Oct-15 19:33N 27°35' W 082°46'0 0.0
2014-Oct-15 18:25N 27°35' W 082°46'0 0.0
2014-Oct-15 17:31N 27°35' W 082°46'0 0.0
2014-Oct-15 16:33N 27°35' W 082°46'0 0.0
2014-Oct-15 15:33N 27°35' W 082°46'1 0.7
2014-Oct-15 14:33N 27°36' W 082°45'1 0.7
2014-Oct-15 13:33N 27°35' W 082°46'0 0.0
2014-Oct-15 12:33N 27°35' W 082°46'0 0.0
2014-Oct-15 11:33N 27°35' W 082°46'3 2.5
2014-Oct-15 10:33N 27°37' W 082°48'3 3.0
2014-Oct-15 09:34N 27°36' W 082°45'6 5.6
2014-Oct-15 08:33N 27°36' W 082°51'5 4.8
2014-Oct-15 07:32N 27°35' W 082°46'0 0.0
2014-Oct-15 06:32N 27°35' W 082°46'0 0.0
2014-Oct-15 05:32N 27°35' W 082°46'0 0.0
2014-Oct-15 04:32N 27°35' W 082°46'0 0.0
2014-Oct-15 03:32N 27°35' W 082°46'0 0.0
2014-Oct-15 02:32N 27°35' W 082°46'0 0.0
2014-Oct-15 00:32N 27°35' W 082°46'0 0.0
2014-Oct-14 23:05N 27°35' W 082°46'0 0.0
2014-Oct-14 22:32N 27°35' W 082°46'0 0.0
2014-Oct-14 21:32N 27°35' W 082°46'0 0.0
2014-Oct-14 20:32N 27°35' W 082°46'0 0.0
2014-Oct-14 19:32N 27°35' W 082°46'0 0.0
2014-Oct-14 18:32N 27°35' W 082°46'0 0.0
2014-Oct-14 17:32N 27°35' W 082°46'7 7.3
2014-Oct-14 16:33N 27°36' W 082°54'8 7.8
2014-Oct-14 15:34N 27°36' W 082°45'1 0.7
2014-Oct-14 13:32N 27°35' W 082°46'0 0.0
2014-Oct-14 12:32N 27°35' W 082°46'0 0.0
2014-Oct-14 11:26N 27°35' W 082°46'2 2.9
2014-Oct-14 10:33N 27°37' W 082°44'2 2.5
2014-Oct-14 09:33N 27°35' W 082°46'0 0.0
2014-Oct-14 08:33N 27°35' W 082°46'4 4.4
2014-Oct-14 07:33N 27°36' W 082°50'2 1.7
2014-Oct-14 06:33N 27°36' W 082°52'8 7.7
2014-Oct-14 05:33N 27°37' W 082°44'2 2.5
2014-Oct-14 04:33N 27°35' W 082°46'0 0.0
2014-Oct-14 03:33N 27°35' W 082°46'1 1.0
2014-Oct-14 02:33N 27°36' W 082°45'5 5.5
2014-Oct-14 01:33N 27°36' W 082°51'5 4.6
2014-Oct-14 00:33N 27°35' W 082°46'1 1.4
2014-Oct-13 23:33N 27°36' W 082°45'1 1.3
2014-Oct-13 22:33N 27°37' W 082°44'5 5.3
2014-Oct-13 21:32N 27°36' W 082°50'4 3.5
2014-Oct-13 20:28N 27°35' W 082°46'1 0.7
2014-Oct-13 19:31N 27°35' W 082°45'1 0.7
2014-Oct-13 18:32N 27°35' W 082°46'0 0.0
2014-Oct-13 17:33N 27°35' W 082°46'0 0.0
2014-Oct-13 16:33N 27°35' W 082°46'0 0.0
2014-Oct-13 15:32N 27°35' W 082°46'0 0.0
2014-Oct-13 14:08N 27°35' W 082°46'0 0.0
2014-Oct-13 13:32N 27°35' W 082°46'0 0.0
2014-Oct-13 12:32N 27°35' W 082°46'0 0.0
2014-Oct-13 11:32N 27°35' W 082°46'0 0.0
2014-Oct-13 10:32N 27°35' W 082°46'0 0.0
2014-Oct-13 09:32N 27°35' W 082°46'0 0.0
2014-Oct-13 08:32N 27°35' W 082°46'0 0.0
2014-Oct-13 07:32N 27°35' W 082°46'0 0.0
2014-Oct-13 06:32N 27°35' W 082°46'0 0.0
2014-Oct-13 05:32N 27°35' W 082°46'0 0.0
2014-Oct-13 04:32N 27°35' W 082°46'0 0.0
2014-Oct-13 03:32N 27°35' W 082°46'0 0.0
2014-Oct-13 02:32N 27°35' W 082°46'0 0.0
2014-Oct-13 01:32N 27°35' W 082°46'0 0.0
2014-Oct-13 00:32N 27°35' W 082°46'0 0.0
2014-Oct-12 23:32N 27°35' W 082°46'2 2.6
2014-Oct-12 22:33N 27°37' W 082°44'2 2.4
2014-Oct-12 21:30N 27°35' W 082°46'2 1.7
2014-Oct-12 20:33N 27°37' W 082°46'2 2.3
2014-Oct-12 19:33N 27°36' W 082°49'3 3.3
2014-Oct-12 18:34N 27°36' W 082°45'1 1.2
2014-Oct-12 17:30N 27°35' W 082°46'6 6.5
2014-Oct-12 16:34N 27°36' W 082°52'4 3.9
2014-Oct-12 15:33N 27°37' W 082°48'2 2.4
2014-Oct-12 14:31N 27°35' W 082°46'0 0.0
2014-Oct-12 13:31N 27°35' W 082°46'0 0.0
2014-Oct-12 12:33N 27°35' W 082°46'3 3.0
2014-Oct-12 11:33N 27°37' W 082°49'4 4.5
2014-Oct-12 10:34N 27°37' W 082°44'2 2.5
2014-Oct-12 09:33N 27°35' W 082°46'0 0.0
2014-Oct-12 08:33N 27°35' W 082°46'0 0.0
2014-Oct-12 07:33N 27°35' W 082°46'7 7.3
2014-Oct-12 06:33N 27°36' W 082°54'9 8.6
2014-Oct-12 05:33N 27°37' W 082°44'2 1.8
2014-Oct-12 04:31N 27°35' W 082°46'0 0.0
2014-Oct-12 03:31N 27°35' W 082°46'0 0.0
2014-Oct-12 02:31N 27°35' W 082°46'0 0.0
2014-Oct-12 01:31N 27°35' W 082°46'0 0.0
2014-Oct-12 00:31N 27°35' W 082°46'0 0.0
2014-Oct-11 23:31N 27°35' W 082°46'2 2.4
2014-Oct-11 22:33N 27°37' W 082°44'2 2.3
2014-Oct-11 21:33N 27°35' W 082°46'0 0.0
2014-Oct-11 20:27N 27°35' W 082°46'0 0.0
2014-Oct-11 19:33N 27°35' W 082°46'0 0.0
2014-Oct-11 18:33N 27°35' W 082°46'3 2.8
2014-Oct-11 17:33N 27°37' W 082°48'3 2.7
2014-Oct-11 16:33N 27°35' W 082°46'0 0.0
2014-Oct-11 15:33N 27°35' W 082°46'1 0.5
2014-Oct-11 14:04N 27°36' W 082°45'1 2.7
2014-Oct-11 13:33N 27°37' W 082°46'1 1.4
2014-Oct-11 12:30N 27°35' W 082°46'0 0.0
2014-Oct-11 11:33N 27°35' W 082°46'0 0.0
2014-Oct-11 10:33N 27°35' W 082°46'0 0.0
2014-Oct-11 09:33N 27°35' W 082°46'0 0.0
2014-Oct-11 08:30N 27°35' W 082°46'0 0.0
2014-Oct-11 07:33N 27°35' W 082°46'6 5.9
2014-Oct-11 06:33N 27°36' W 082°52'1 1.1
2014-Oct-11 05:20N 27°36' W 082°51'5 5.7
2014-Oct-11 04:32N 27°35' W 082°46'0 0.0
2014-Oct-11 03:32N 27°35' W 082°46'0 0.0
2014-Oct-11 02:29N 27°35' W 082°46'0 0.0
2014-Oct-11 01:29N 27°35' W 082°46'0 0.0
2014-Oct-11 00:32N 27°35' W 082°46'0 0.0
2014-Oct-10 23:32N 27°35' W 082°46'0 0.0
2014-Oct-10 22:32N 27°35' W 082°46'0 0.0
2014-Oct-10 21:32N 27°35' W 082°46'0 0.0
2014-Oct-10 20:29N 27°35' W 082°46'0 0.0
2014-Oct-10 19:32N 27°35' W 082°46'0 0.0
2014-Oct-10 18:32N 27°35' W 082°46'  

Dump ship's entire track history